DW4212 La Cabrera ES current weather conditions

sailwx.info

Wind from 245

Air temperature 2.2° C
Dewpoint -1.6° C

Last reported at 2017-Mar-24 19:49 UTC.
Time now 2017-Mar-24 20:18 UTC

Location: N 40°53' W 003°35'.
View on Google Maps.

See reports from other nearby stations

  
Tides and Currents Weather Stations Pressure Air Temp Water Temp Dewpoint Dewpoint Depression Visibility Wind Speed Wind Dir Waves Ship Positions
date/time (UTC)wind fromknots sea level pressurealtimeterstation pressurevisibilityair tempwater tempwave heightnotes
2017-Mar-24 19:49 245 2.2
2017-Mar-24 19:39 252 2.8
2017-Mar-24 19:29 252 2.8
2017-Mar-24 19:19 252 3.3
2017-Mar-24 19:09 252 3.3
2017-Mar-24 18:49 252 2.8
2017-Mar-24 18:39 217 2.8
2017-Mar-24 18:29 217 2.8
2017-Mar-24 18:09 242 2 gusting 13 3.3
2017-Mar-24 17:59 257 5 gusting 13 3.3
2017-Mar-24 17:49 241 1 gusting 9 3.9
2017-Mar-24 17:39 237 0 gusting 6 3.9
2017-Mar-24 17:29 234 0 gusting 6 4.4
2017-Mar-24 17:19 258 0 gusting 4 4.4
2017-Mar-24 17:09 245 0 gusting 3 5.0
2017-Mar-24 16:59 189 0 gusting 5 5.0
2017-Mar-24 16:49 078 5.6
2017-Mar-24 16:39 078 5.6
2017-Mar-24 16:29 078 5.0
2017-Mar-24 16:19 078 5.6
2017-Mar-24 16:09 078 5.6
2017-Mar-24 15:49 078 5.0
2017-Mar-24 15:39 078 0 gusting 1 5.6
2017-Mar-24 15:29 071 5.6
2017-Mar-24 15:19 068 0 gusting 2 5.6
2017-Mar-24 15:09 042 6.1
2017-Mar-24 14:59 077 0 gusting 4 6.1
2017-Mar-24 14:49 203 0 gusting 2 6.1
2017-Mar-24 14:39 201 5.6
2017-Mar-24 14:29 201 5.6
2017-Mar-24 14:19 203 5.6
2017-Mar-24 14:09 203 5.6
2017-Mar-24 13:59 203 0 gusting 3 6.1
2017-Mar-24 13:49 202 6.1
2017-Mar-24 13:39 203 0 gusting 3 6.1
2017-Mar-24 13:29 200 6.1
2017-Mar-24 13:19 200 5.6
2017-Mar-24 13:09 210 6.1
2017-Mar-24 12:59 207 6.1
2017-Mar-24 12:49 207 5.6
2017-Mar-24 12:39 204 0 gusting 3 5.6
2017-Mar-24 12:29 204 1 gusting 4 5.6
2017-Mar-24 12:19 198 5.6
2017-Mar-24 12:09 184 5.6
2017-Mar-24 11:59 184 0 gusting 3 5.0
2017-Mar-24 11:49 184 0 gusting 2 4.4
2017-Mar-24 11:39 184 3.9
2017-Mar-24 11:29 184 3.3
2017-Mar-24 11:19 184 3.3
2017-Mar-24 11:09 184 3.9
2017-Mar-24 10:59 184 3.9
2017-Mar-24 10:49 184 3.3
2017-Mar-24 10:39 184 2.8
2017-Mar-24 10:29 184 2.2
2017-Mar-24 10:19 184 2.2
2017-Mar-24 10:09 184 1.7
2017-Mar-24 09:59 184 1.1
2017-Mar-24 09:50 184 1.1
2017-Mar-24 09:39 184 0.6
2017-Mar-24 09:29 184 0.6
2017-Mar-24 09:19 184 -0.0
2017-Mar-24 09:09 184 -0.0
2017-Mar-24 08:59 184 -0.0
2017-Mar-24 08:49 184 -0.0
2017-Mar-24 08:39 184 -0.0
2017-Mar-24 08:29 184 -0.0
2017-Mar-24 08:19 184 -0.0
2017-Mar-24 08:09 184 -0.0
2017-Mar-24 07:59 184 -0.6
2017-Mar-24 07:49 184 -0.6
2017-Mar-24 07:39 184 -0.6
2017-Mar-24 07:29 184 -0.6
2017-Mar-24 07:19 184 -0.0
2017-Mar-24 07:09 184 -0.0
2017-Mar-24 06:59 184 -0.0
2017-Mar-24 06:49 184 -0.6
2017-Mar-24 06:39 184 -0.6
2017-Mar-24 06:29 184 -0.6
2017-Mar-24 06:19 184 -0.6
2017-Mar-24 06:09 184 -0.6
2017-Mar-24 05:59 184 -1.1
2017-Mar-24 05:49 184 -1.1
2017-Mar-24 05:39 184 -1.1
2017-Mar-24 05:29 184 -1.7
2017-Mar-24 05:19 184 -1.7
2017-Mar-24 05:09 184 -1.7
2017-Mar-24 04:59 184 -1.7
2017-Mar-24 04:49 184 -1.7
2017-Mar-24 04:39 183 -1.7
2017-Mar-24 04:29 183 -1.7
2017-Mar-24 04:19 183 -1.1
2017-Mar-24 04:09 183 -1.1
2017-Mar-24 03:59 183 -0.6
2017-Mar-24 03:49 182 -0.6
2017-Mar-24 03:39 183 -0.6
2017-Mar-24 03:29 183 -0.6
2017-Mar-24 03:19 183 -0.0
2017-Mar-24 03:09 183 -0.0
2017-Mar-24 02:59 183 -0.6
2017-Mar-24 02:49 183 -0.6
2017-Mar-24 02:39 183 -0.6
2017-Mar-24 02:29 182 -0.6
2017-Mar-24 02:19 182 -0.6
2017-Mar-24 02:09 182 -0.6
2017-Mar-24 01:59 183 -0.6
2017-Mar-24 01:49 183 -0.6
2017-Mar-24 01:39 183 -0.6
2017-Mar-24 01:29 182 -0.6
2017-Mar-24 01:19 183 -0.6
2017-Mar-24 01:09 183 -0.6
2017-Mar-24 00:59 183 -0.6
2017-Mar-24 00:49 183 -0.6
2017-Mar-24 00:39 183 -0.6
2017-Mar-24 00:29 182 -0.6
2017-Mar-24 00:19 183 -0.6
2017-Mar-24 00:09 183 -0.0
2017-Mar-23 23:59 183 -0.0
2017-Mar-23 23:49 183 -0.0
2017-Mar-23 23:39 183 -0.0
2017-Mar-23 23:29 182 -0.6
2017-Mar-23 23:19 181 -0.0
2017-Mar-23 23:09 181 -0.0
2017-Mar-23 22:59 181 -0.0
2017-Mar-23 22:49 181 -0.0
2017-Mar-23 22:39 181 -0.0
2017-Mar-23 22:29 181 -0.0
2017-Mar-23 22:19 181 -0.0
2017-Mar-23 22:09 181 -0.0
2017-Mar-23 21:59 181 -0.0
2017-Mar-23 21:49 181 -0.0
2017-Mar-23 21:39 181 -0.6
2017-Mar-23 21:29 183 -0.6
2017-Mar-23 21:19 193 0 gusting 3 0.6
2017-Mar-23 21:09 182 0.6
2017-Mar-23 20:59 182 0.6
2017-Mar-23 20:50 182 0.6
2017-Mar-23 20:39 182 0.6
2017-Mar-23 20:29 182 0.6
2017-Mar-23 20:19 182 0.6
2017-Mar-23 20:09 182 0.6
2017-Mar-23 19:59 182 0.6
2017-Mar-23 19:49 182 0.6
2017-Mar-23 19:39 182 0.6
2017-Mar-23 19:29 182 0.6
2017-Mar-23 19:19 182 0.6
2017-Mar-23 19:09 182 0.6
2017-Mar-23 18:59 182 0.6
2017-Mar-23 18:49 182 0.6
2017-Mar-23 18:39 182 0.6
2017-Mar-23 18:29 182 0.6
2017-Mar-23 18:19 182 0.6
2017-Mar-23 18:09 182 0.6
2017-Mar-23 17:59 182 0.6
2017-Mar-23 17:49 182 0.6
2017-Mar-23 17:39 182 0 gusting 4 1.1
2017-Mar-23 17:29 179 0 gusting 4 1.1
2017-Mar-23 17:19 179 1.1
2017-Mar-23 17:09 179 1.1
2017-Mar-23 17:00 178 1.1
2017-Mar-23 16:49 177 0 gusting 4 1.1
2017-Mar-23 16:39 178 1.1
2017-Mar-23 16:29 178 1.1
2017-Mar-23 16:19 178 1.7
2017-Mar-23 16:09 178 1.7
2017-Mar-23 15:59 177 0 gusting 4 2.2
2017-Mar-23 15:49 180 0 gusting 6 2.2
2017-Mar-23 15:39 196 1 gusting 6 2.2
2017-Mar-23 15:29 179 1 gusting 6 2.8
2017-Mar-23 15:19 182 2.8
2017-Mar-23 15:09 184 0 gusting 3 2.2
2017-Mar-23 14:59 184 1 gusting 3 2.2
2017-Mar-23 14:49 175 0 gusting 4 2.2
2017-Mar-23 14:39 184 1.7
2017-Mar-23 14:29 185 1.7
2017-Mar-23 14:19 185 0 gusting 5 2.2
2017-Mar-23 14:09 183 2.2
2017-Mar-23 13:59 186 0 gusting 5 2.2
2017-Mar-23 13:49 175 1.7
2017-Mar-23 13:39 182 1 gusting 6 1.7
2017-Mar-23 13:29 178 2 gusting 6 1.7
2017-Mar-23 13:19 182 2 gusting 6 1.1
2017-Mar-23 13:09 182 0 gusting 4 1.7
2017-Mar-23 12:59 179 1 gusting 6 1.1
2017-Mar-23 12:49 197 2 gusting 6 1.7
2017-Mar-23 12:40 190 2 gusting 6 1.7
2017-Mar-23 12:29 180 2 gusting 7 2.2
2017-Mar-23 12:19 169 1 gusting 9 3.3
2017-Mar-23 12:09 182 1 gusting 10 3.3
2017-Mar-23 11:59 172 1 gusting 7 3.3
2017-Mar-23 11:49 174 2 gusting 6 3.3
2017-Mar-23 11:39 194 1 gusting 6 3.3
2017-Mar-23 11:29 142 0 gusting 6 2.2
2017-Mar-23 11:19 175 0 gusting 7 2.8
2017-Mar-23 11:09 188 1 gusting 7 2.8
2017-Mar-23 10:59 175 0 gusting 9 2.2
2017-Mar-23 10:49 180 1.7
2017-Mar-23 10:39 182 1 gusting 6 2.2
2017-Mar-23 10:29 183 0 gusting 6 2.2
2017-Mar-23 10:19 183 1 gusting 8 2.8
2017-Mar-23 10:09 176 1 gusting 6 2.2
2017-Mar-23 09:59 182 1 gusting 6 2.8
2017-Mar-23 09:49 186 2 gusting 7 2.8
2017-Mar-23 09:39 197 0 gusting 5 2.8
2017-Mar-23 09:29 185 0 gusting 4 2.2
2017-Mar-23 09:19 180 1.7
2017-Mar-23 09:09 176 0 gusting 4 2.2
2017-Mar-23 08:59 173 1 gusting 7 2.8
2017-Mar-23 08:49 167 0 gusting 5 2.8
2017-Mar-23 08:39 182 2.8
2017-Mar-23 08:29 192 1 gusting 4 2.8
2017-Mar-23 08:19 184 1 gusting 3 2.2
2017-Mar-23 07:59 184 1.7
2017-Mar-23 07:49 184 0.6
2017-Mar-23 07:39 185 -0.0
2017-Mar-23 07:29 022 -0.6
2017-Mar-23 07:19 022 -1.1
2017-Mar-23 07:09 021 1 gusting 2 -1.7
2017-Mar-23 06:59 016 -2.2
2017-Mar-23 06:49 016 -2.8
2017-Mar-23 06:39 016 -3.3
2017-Mar-23 06:29 016 -3.3
2017-Mar-23 06:19 016 1 gusting 3 -2.8
2017-Mar-23 06:09 018 -2.8
2017-Mar-23 05:59 018 -2.8
2017-Mar-23 05:49 019 0 gusting 3 -2.8
2017-Mar-23 05:39 022 -2.2
2017-Mar-23 05:29 022 0 gusting 4 -2.2
2017-Mar-23 05:19 024 1 gusting 6 -2.2
2017-Mar-23 05:09 032 3 gusting 6 -2.2
2017-Mar-23 04:59 040 0 gusting 3 -2.2
2017-Mar-23 04:49 040 0 gusting 3 -2.2
2017-Mar-23 04:39 041 -2.2
2017-Mar-23 04:29 041 -1.7
2017-Mar-23 04:19 041 -1.7
2017-Mar-23 04:09 041 -1.7
2017-Mar-23 03:59 041 -1.7
2017-Mar-23 03:49 041 1 gusting 3 -1.1
2017-Mar-23 03:39 075 -1.1
2017-Mar-23 03:29 075 284 gusting 284 -0.6
2017-Mar-23 03:19 067 0 gusting 6 -1.1
2017-Mar-23 03:09 005 -0.6
2017-Mar-23 03:00 262 0 gusting 6 -0.6
2017-Mar-23 02:49 272 3 gusting 7 -0.6
2017-Mar-23 02:39 279 0 gusting 8 -0.6
2017-Mar-23 02:29 291 5 gusting 10 -0.6
2017-Mar-23 02:19 302 2 gusting 9 -0.6
2017-Mar-23 02:09 291 -0.6
2017-Mar-23 01:59 291 1 gusting 8 -0.0
2017-Mar-23 01:49 355 6 gusting 12 -0.0
2017-Mar-23 01:39 262 5 gusting 8 -0.0
2017-Mar-23 01:29 273 3 gusting 8 -0.0
2017-Mar-23 01:19 250 4 gusting 10 -0.0
2017-Mar-23 01:09 286 1 gusting 6 -0.0
2017-Mar-23 00:59 297 0 gusting 9 -0.0
2017-Mar-23 00:49 309 4 gusting 9 -0.0
2017-Mar-23 00:39 333 4 gusting 10 -0.0
2017-Mar-23 00:29 330 3 gusting 11 -0.0
2017-Mar-23 00:19 348 1 gusting 6 -0.0
2017-Mar-23 00:09 315 -0.0
2017-Mar-22 23:59 344 1 gusting 8 -0.0
2017-Mar-22 23:49 312 284 gusting 284 0.6
2017-Mar-22 23:39 323 6 gusting 14 0.6
2017-Mar-22 23:29 329 7 gusting 13 0.6
2017-Mar-22 23:19 319 4 gusting 10 0.6
2017-Mar-22 23:09 311 1 gusting 6 0.6
2017-Mar-22 22:59 340 2 gusting 6 0.6
2017-Mar-22 22:49 009 0 gusting 6 0.6
2017-Mar-22 22:39 360 2 gusting 5 1.1
2017-Mar-22 22:29 005 2 gusting 9 1.1
2017-Mar-22 22:19 336 4 gusting 8 1.7
2017-Mar-22 22:09 333 2 gusting 7 1.7
2017-Mar-22 21:59 340 3 gusting 6 1.7
2017-Mar-22 21:49 009 284 gusting 284 2.2
2017-Mar-22 21:39 314 0 gusting 6 2.2
2017-Mar-22 21:29 315 2.2
2017-Mar-22 21:19 315 0 gusting 6 2.2
2017-Mar-22 21:09 257 2 gusting 9 2.2
2017-Mar-22 20:59 269 6 gusting 13 2.2
2017-Mar-22 20:49 283 5 gusting 15 2.2
2017-Mar-22 20:39 320 8 gusting 14 1.7
2017-Mar-22 20:29 319 7 gusting 14 1.7
2017-Mar-22 20:09 316 8 gusting 15 1.7